Time;durP1;ratioP1;P1;durP2;ratioP2;P2;SDS_P1;SDS_P2;PMS_P1;PMS_P2;Temp;Humidity;BMP_temperature;BMP_pressure;BME280_temperature;BME280_humidity;BME280_pressure;Samples;Min_cycle;Max_cycle;Signal;HPM_P1;HPM_P2
2023/10/06 00:00:50;;;;;;;;;;;21.80;44.40;;;;;;1565635;75;1929;-59
2023/10/06 00:02:52;;;;;;;;;;;21.80;44.30;;;;;;1569243;74;729;-60
2023/10/06 00:04:54;;;;;;;;;;;21.80;44.40;;;;;;1562944;74;741;-60
2023/10/06 00:06:56;;;;;;;;;;;21.80;44.30;;;;;;1570460;75;722;-58
2023/10/06 00:08:58;;;;;;;;;;;21.80;44.30;;;;;;1569480;75;770;-58
2023/10/06 00:11:11;;;;;;;;;;;21.80;44.30;;;;;;1561500;75;1140;-58
2023/10/06 00:13:05;;;;;;;;;;;21.80;44.10;;;;;;1565048;75;1598;-60
2023/10/06 00:15:09;;;;;;;;;;;21.80;44.10;;;;;;1562999;74;1747;-60
2023/10/06 00:17:21;;;;;;;;;;;21.80;44.10;;;;;;1568862;75;706;-60
2023/10/06 00:19:33;;;;;;;;;;;21.80;44.10;;;;;;1565771;75;737;-61
2023/10/06 00:21:35;;;;;;;;;;;21.80;44.00;;;;;;1563683;75;1940;-58
2023/10/06 00:23:39;;;;;;;;;;;21.80;44.10;;;;;;1551993;75;1097;-59
2023/10/06 00:25:42;;;;;;;;;;;21.80;44.00;;;;;;1551486;75;2058;-60
2023/10/06 00:27:46;;;;;;;;;;;21.80;43.90;;;;;;1557598;75;1577;-61
2023/10/06 00:29:48;;;;;;;;;;;21.80;43.80;;;;;;1548751;76;1927;-58
2023/10/06 00:31:50;;;;;;;;;;;21.80;43.90;;;;;;1556800;75;1240;-59
2023/10/06 00:33:53;;;;;;;;;;;21.90;44.00;;;;;;1557220;75;605;-59
2023/10/06 00:35:55;;;;;;;;;;;21.80;43.70;;;;;;1556706;76;783;-60
2023/10/06 00:38:12;;;;;;;;;;;21.80;43.90;;;;;;1558265;75;814;-60
2023/10/06 00:40:00;;;;;;;;;;;21.80;43.70;;;;;;1545127;75;1429;-60
2023/10/06 00:42:06;;;;;;;;;;;21.80;43.70;;;;;;1558604;75;1955;-60
2023/10/06 00:44:06;;;;;;;;;;;21.80;43.60;;;;;;1547916;75;1428;-58
2023/10/06 00:46:08;;;;;;;;;;;21.80;43.50;;;;;;1552666;76;796;-58
2023/10/06 00:48:14;;;;;;;;;;;21.80;43.60;;;;;;1552144;75;741;-59
2023/10/06 00:50:15;;;;;;;;;;;21.80;43.70;;;;;;1553956;75;1422;-60
2023/10/06 00:52:17;;;;;;;;;;;21.70;43.50;;;;;;1560980;75;1149;-60
2023/10/06 00:54:19;;;;;;;;;;;21.70;43.60;;;;;;1557440;75;676;-59
2023/10/06 00:56:28;;;;;;;;;;;21.80;43.40;;;;;;1554680;75;1859;-59
2023/10/06 00:58:25;;;;;;;;;;;21.70;43.40;;;;;;1543422;75;1525;-58
2023/10/06 01:00:31;;;;;;;;;;;21.80;43.50;;;;;;1541474;75;1181;-61
2023/10/06 01:02:33;;;;;;;;;;;21.80;43.50;;;;;;1555294;75;1940;-60
2023/10/06 01:04:36;;;;;;;;;;;21.80;43.40;;;;;;1558036;75;1557;-58
2023/10/06 01:06:39;;;;;;;;;;;21.80;43.30;;;;;;1558247;75;1590;-60
2023/10/06 01:08:48;;;;;;;;;;;21.70;43.40;;;;;;1552632;75;1426;-60
2023/10/06 01:10:51;;;;;;;;;;;21.80;43.30;;;;;;1552562;75;1514;-60
2023/10/06 01:12:52;;;;;;;;;;;21.80;43.30;;;;;;1555976;75;1607;-59
2023/10/06 01:15:05;;;;;;;;;;;21.70;43.20;;;;;;1557064;75;796;-59
2023/10/06 01:17:16;;;;;;;;;;;21.70;43.20;;;;;;1555302;76;1536;-58
2023/10/06 01:19:47;;;;;;;;;;;21.80;43.30;;;;;;1549228;75;1964;-58
2023/10/06 01:21:17;;;;;;;;;;;21.70;43.20;;;;;;1528935;76;1378;-60
2023/10/06 01:23:27;;;;;;;;;;;21.80;43.20;;;;;;1560195;74;1575;-58
2023/10/06 01:25:24;;;;;;;;;;;21.70;43.10;;;;;;1578940;74;1621;-59
2023/10/06 01:27:26;;;;;;;;;;;21.70;43.10;;;;;;1575236;74;739;-58
2023/10/06 01:29:32;;;;;;;;;;;21.70;43.20;;;;;;1572452;74;804;-59
2023/10/06 01:31:37;;;;;;;;;;;21.70;43.20;;;;;;1572191;74;1597;-60
2023/10/06 01:33:35;;;;;;;;;;;21.70;43.10;;;;;;1573995;74;1519;-58
2023/10/06 01:35:42;;;;;;;;;;;21.70;43.00;;;;;;1572067;74;653;-59
2023/10/06 01:37:43;;;;;;;;;;;21.70;43.10;;;;;;1578202;74;1481;-59
2023/10/06 01:39:48;;;;;;;;;;;21.70;43.00;;;;;;1565264;74;731;-60
2023/10/06 01:41:49;;;;;;;;;;;21.70;42.90;;;;;;1570066;74;1935;-58
2023/10/06 01:43:51;;;;;;;;;;;21.70;42.90;;;;;;1567296;74;662;-59
2023/10/06 01:45:53;;;;;;;;;;;21.70;42.80;;;;;;1573131;75;675;-60
2023/10/06 01:50:13;;;;;;;;;;;21.70;42.60;;;;;;1567641;74;611;-60
2023/10/06 01:52:19;;;;;;;;;;;21.70;42.80;;;;;;1573049;74;1347;-60
2023/10/06 01:54:19;;;;;;;;;;;21.70;42.70;;;;;;1577550;74;1455;-60
2023/10/06 01:56:23;;;;;;;;;;;21.70;42.60;;;;;;1574876;74;804;-60
2023/10/06 01:58:25;;;;;;;;;;;21.70;42.60;;;;;;1572107;74;1480;-60
2023/10/06 02:00:31;;;;;;;;;;;21.60;42.50;;;;;;1569484;74;1136;-59
2023/10/06 02:02:30;;;;;;;;;;;21.60;42.50;;;;;;1570759;74;1918;-60
2023/10/06 02:04:38;;;;;;;;;;;21.60;42.40;;;;;;1572452;74;704;-59
2023/10/06 02:06:36;;;;;;;;;;;21.70;42.50;;;;;;1570683;74;1767;-60
2023/10/06 02:08:38;;;;;;;;;;;21.70;42.50;;;;;;1567980;74;800;-58
2023/10/06 02:10:42;;;;;;;;;;;21.70;42.40;;;;;;1572334;74;1109;-59
2023/10/06 02:12:44;;;;;;;;;;;21.70;42.40;;;;;;1570277;74;1604;-61
2023/10/06 02:14:47;;;;;;;;;;;21.70;42.40;;;;;;1579964;74;879;-59
2023/10/06 02:16:55;;;;;;;;;;;21.60;42.30;;;;;;1578358;74;779;-59
2023/10/06 02:18:54;;;;;;;;;;;21.70;42.40;;;;;;1571547;74;1536;-59
2023/10/06 02:20:56;;;;;;;;;;;21.70;42.50;;;;;;1579726;74;1093;-60
2023/10/06 02:23:02;;;;;;;;;;;21.70;42.40;;;;;;1574377;74;1938;-59
2023/10/06 02:25:09;;;;;;;;;;;21.60;42.30;;;;;;1561604;75;1113;-60
2023/10/06 02:27:10;;;;;;;;;;;21.70;42.40;;;;;;1565905;75;1687;-60
2023/10/06 02:29:33;;;;;;;;;;;21.70;42.40;;;;;;1566950;74;741;-60
2023/10/06 02:31:16;;;;;;;;;;;21.70;42.30;;;;;;1554573;75;1307;-60
2023/10/06 02:33:18;;;;;;;;;;;21.60;42.20;;;;;;1570867;74;1460;-59
2023/10/06 02:35:20;;;;;;;;;;;21.60;42.20;;;;;;1565501;75;680;-59
2023/10/06 02:37:23;;;;;;;;;;;21.60;42.30;;;;;;1572700;75;670;-58
2023/10/06 02:39:28;;;;;;;;;;;21.60;42.30;;;;;;1564121;74;654;-60
2023/10/06 02:41:29;;;;;;;;;;;21.70;42.40;;;;;;1562129;74;1493;-60
2023/10/06 02:43:33;;;;;;;;;;;21.70;42.50;;;;;;1565508;74;1903;-60
2023/10/06 02:45:40;;;;;;;;;;;21.60;42.30;;;;;;1568051;75;2023;-59
2023/10/06 02:47:41;;;;;;;;;;;21.60;42.50;;;;;;1570359;74;1614;-60
2023/10/06 02:49:50;;;;;;;;;;;21.60;42.50;;;;;;1561382;75;793;-59
2023/10/06 02:51:54;;;;;;;;;;;21.70;43.00;;;;;;1565857;74;1177;-58
2023/10/06 02:54:09;;;;;;;;;;;21.70;42.70;;;;;;1559439;75;1264;-59
2023/10/06 02:56:07;;;;;;;;;;;21.60;42.80;;;;;;1561717;74;1629;-59
2023/10/06 02:58:04;;;;;;;;;;;21.70;42.90;;;;;;1569645;74;1593;-58
2023/10/06 03:02:26;;;;;;;;;;;21.70;43.00;;;;;;1561101;74;1919;-60
2023/10/06 03:04:28;;;;;;;;;;;21.70;43.10;;;;;;1558765;75;723;-61
2023/10/06 03:06:32;;;;;;;;;;;21.70;42.90;;;;;;1578209;74;763;-59
2023/10/06 03:08:35;;;;;;;;;;;21.70;42.80;;;;;;1562296;74;1445;-59
2023/10/06 03:10:46;;;;;;;;;;;21.70;43.00;;;;;;1564896;75;1121;-60
2023/10/06 03:12:40;;;;;;;;;;;21.70;42.90;;;;;;1568684;75;1495;-60
2023/10/06 03:14:43;;;;;;;;;;;21.70;42.90;;;;;;1564648;74;683;-59
2023/10/06 03:16:50;;;;;;;;;;;21.70;43.00;;;;;;1561990;74;1454;-59
2023/10/06 03:18:52;;;;;;;;;;;21.70;43.10;;;;;;1562784;75;1646;-60
2023/10/06 03:20:57;;;;;;;;;;;21.70;43.00;;;;;;1567352;75;1916;-59
2023/10/06 03:22:56;;;;;;;;;;;21.70;43.00;;;;;;1569513;74;1938;-60
2023/10/06 03:25:00;;;;;;;;;;;21.70;43.30;;;;;;1565998;75;1119;-59
2023/10/06 03:27:06;;;;;;;;;;;21.70;43.30;;;;;;1570734;75;869;-60
2023/10/06 03:29:11;;;;;;;;;;;21.70;43.10;;;;;;1549756;75;1579;-59
2023/10/06 03:33:23;;;;;;;;;;;21.70;43.10;;;;;;1565040;74;855;-59
2023/10/06 03:35:35;;;;;;;;;;;21.70;42.90;;;;;;1568365;75;667;-59
2023/10/06 03:37:45;;;;;;;;;;;21.70;42.90;;;;;;1563374;75;1565;-60
2023/10/06 03:39:48;;;;;;;;;;;21.70;42.80;;;;;;1565541;74;1595;-58
2023/10/06 03:41:46;;;;;;;;;;;21.70;42.90;;;;;;1561986;75;1711;-59
2023/10/06 03:43:57;;;;;;;;;;;21.70;43.40;;;;;;1568519;74;1921;-60
2023/10/06 03:45:57;;;;;;;;;;;21.70;43.10;;;;;;1569575;74;1566;-60
2023/10/06 03:48:14;;;;;;;;;;;21.70;43.10;;;;;;1580218;75;711;-59
2023/10/06 03:50:17;;;;;;;;;;;21.70;43.30;;;;;;1558539;75;705;-60
2023/10/06 03:52:19;;;;;;;;;;;21.70;43.10;;;;;;1572610;74;718;-58
2023/10/06 03:54:21;;;;;;;;;;;21.70;43.30;;;;;;1570614;75;747;-59
2023/10/06 03:56:22;;;;;;;;;;;21.70;43.10;;;;;;1562139;75;871;-59
2023/10/06 03:58:28;;;;;;;;;;;21.70;42.80;;;;;;1575707;75;1444;-59
2023/10/06 04:00:28;;;;;;;;;;;21.70;42.80;;;;;;1565885;75;1502;-59
2023/10/06 04:02:38;;;;;;;;;;;21.70;43.00;;;;;;1560290;75;1943;-61
2023/10/06 04:04:33;;;;;;;;;;;21.70;42.90;;;;;;1567851;75;1571;-60
2023/10/06 04:06:36;;;;;;;;;;;21.70;44.70;;;;;;1560138;74;729;-60
2023/10/06 04:08:38;;;;;;;;;;;21.80;45.30;;;;;;1567586;74;786;-60
2023/10/06 04:10:40;;;;;;;;;;;21.80;46.10;;;;;;1558447;75;1201;-59
2023/10/06 04:12:43;;;;;;;;;;;21.80;45.50;;;;;;1571324;75;1339;-59
2023/10/06 04:14:45;;;;;;;;;;;21.80;45.30;;;;;;1564214;75;736;-59
2023/10/06 04:16:47;;;;;;;;;;;21.80;44.90;;;;;;1565909;75;694;-60
2023/10/06 04:18:49;;;;;;;;;;;21.80;45.40;;;;;;1564056;75;746;-59
2023/10/06 04:20:51;;;;;;;;;;;21.80;45.20;;;;;;1561877;75;1193;-60
2023/10/06 04:22:53;;;;;;;;;;;21.80;45.50;;;;;;1579313;74;1941;-60
2023/10/06 04:24:55;;;;;;;;;;;21.90;45.50;;;;;;1569202;74;1096;-59
2023/10/06 04:26:57;;;;;;;;;;;21.70;45.40;;;;;;1569485;75;1426;-59
2023/10/06 04:28:59;;;;;;;;;;;21.80;45.60;;;;;;1569611;75;764;-59
2023/10/06 04:31:01;;;;;;;;;;;21.70;44.70;;;;;;1557399;74;1197;-59
2023/10/06 04:33:06;;;;;;;;;;;21.70;45.30;;;;;;1573681;75;726;-59
2023/10/06 04:35:19;;;;;;;;;;;21.80;46.60;;;;;;1572225;75;728;-60
2023/10/06 04:37:13;;;;;;;;;;;21.80;48.10;;;;;;1569494;74;1578;-60
2023/10/06 04:39:16;;;;;;;;;;;21.80;49.40;;;;;;1569379;75;642;-60
2023/10/06 04:41:20;;;;;;;;;;;21.80;49.80;;;;;;1568374;75;1677;-60
2023/10/06 04:43:22;;;;;;;;;;;21.80;50.20;;;;;;1564044;75;1924;-59
2023/10/06 04:45:24;;;;;;;;;;;21.80;50.50;;;;;;1561200;75;718;-59
2023/10/06 04:47:31;;;;;;;;;;;21.90;50.70;;;;;;1561442;74;682;-59
2023/10/06 04:49:31;;;;;;;;;;;21.80;50.70;;;;;;1560116;74;1565;-59
2023/10/06 04:51:34;;;;;;;;;;;21.80;51.00;;;;;;1571163;74;1128;-59
2023/10/06 04:53:36;;;;;;;;;;;21.80;51.00;;;;;;1566243;75;1568;-59
2023/10/06 04:55:41;;;;;;;;;;;21.90;51.20;;;;;;1560274;75;715;-59
2023/10/06 04:57:43;;;;;;;;;;;21.90;51.10;;;;;;1556063;75;719;-57
2023/10/06 04:59:45;;;;;;;;;;;21.90;51.40;;;;;;1562254;74;708;-58
2023/10/06 05:01:47;;;;;;;;;;;21.90;51.60;;;;;;1564927;74;1255;-60
2023/10/06 05:03:49;;;;;;;;;;;21.90;51.60;;;;;;1564244;75;1911;-60
2023/10/06 05:05:55;;;;;;;;;;;21.90;51.30;;;;;;1568630;75;723;-58
2023/10/06 05:07:55;;;;;;;;;;;21.90;51.30;;;;;;1564257;75;1523;-60
2023/10/06 05:09:56;;;;;;;;;;;21.90;50.70;;;;;;1569581;75;714;-59
2023/10/06 05:11:58;;;;;;;;;;;21.80;49.90;;;;;;1572910;74;1185;-59
2023/10/06 05:14:01;;;;;;;;;;;21.80;49.40;;;;;;1564126;75;791;-60
2023/10/06 05:16:03;;;;;;;;;;;21.60;49.10;;;;;;1571933;75;802;-58
2023/10/06 05:18:05;;;;;;;;;;;21.60;49.00;;;;;;1570267;75;773;-59
2023/10/06 05:20:19;;;;;;;;;;;21.50;49.00;;;;;;1560223;75;687;-59
2023/10/06 05:22:11;;;;;;;;;;;21.50;48.90;;;;;;1563585;74;1619;-59
2023/10/06 05:24:14;;;;;;;;;;;21.50;49.00;;;;;;1571916;75;1943;-58
2023/10/06 05:26:18;;;;;;;;;;;21.40;48.80;;;;;;1568070;74;1112;-60
2023/10/06 05:28:20;;;;;;;;;;;21.40;48.90;;;;;;1578062;74;1605;-59
2023/10/06 05:30:22;;;;;;;;;;;21.40;48.90;;;;;;1566300;74;1182;-59
2023/10/06 05:32:24;;;;;;;;;;;21.30;48.90;;;;;;1577833;74;743;-58
2023/10/06 05:34:29;;;;;;;;;;;21.30;48.90;;;;;;1567156;74;765;-59
2023/10/06 05:36:31;;;;;;;;;;;21.20;48.70;;;;;;1572474;74;1453;-59
2023/10/06 05:38:33;;;;;;;;;;;21.20;48.70;;;;;;1573550;75;820;-59
2023/10/06 05:40:35;;;;;;;;;;;21.20;48.70;;;;;;1571422;74;1157;-59
2023/10/06 05:42:37;;;;;;;;;;;21.20;48.70;;;;;;1569952;74;820;-58
2023/10/06 05:44:39;;;;;;;;;;;21.10;48.80;;;;;;1580972;74;1932;-59
2023/10/06 05:46:44;;;;;;;;;;;21.10;48.80;;;;;;1569183;74;690;-58
2023/10/06 05:48:46;;;;;;;;;;;21.10;48.80;;;;;;1561962;74;664;-60
2023/10/06 05:50:48;;;;;;;;;;;21.00;48.70;;;;;;1571431;74;1423;-59
2023/10/06 05:52:51;;;;;;;;;;;21.00;48.80;;;;;;1568435;74;705;-59
2023/10/06 05:54:57;;;;;;;;;;;20.90;48.80;;;;;;1566658;74;679;-59
2023/10/06 05:56:57;;;;;;;;;;;20.90;48.90;;;;;;1569103;74;1148;-59
2023/10/06 05:58:59;;;;;;;;;;;20.90;48.80;;;;;;1568242;74;712;-59
2023/10/06 06:01:06;;;;;;;;;;;21.00;48.90;;;;;;1572277;75;1200;-60
2023/10/06 06:03:10;;;;;;;;;;;20.90;48.90;;;;;;1568715;74;1923;-59
2023/10/06 06:05:08;;;;;;;;;;;20.90;49.00;;;;;;1576367;74;1616;-59
2023/10/06 06:07:10;;;;;;;;;;;20.90;49.10;;;;;;1572550;74;739;-59
2023/10/06 06:09:15;;;;;;;;;;;20.90;49.30;;;;;;1581736;74;779;-58
2023/10/06 06:11:17;;;;;;;;;;;21.00;49.60;;;;;;1567903;74;1145;-58
2023/10/06 06:13:19;;;;;;;;;;;21.00;49.70;;;;;;1567794;74;803;-59
2023/10/06 06:15:21;;;;;;;;;;;21.00;49.90;;;;;;1572866;73;588;-60
2023/10/06 06:17:23;;;;;;;;;;;21.10;49.90;;;;;;1574420;74;673;-58
2023/10/06 06:19:25;;;;;;;;;;;21.10;49.90;;;;;;1579464;74;1470;-59
2023/10/06 06:21:27;;;;;;;;;;;21.10;49.90;;;;;;1571414;74;1150;-59
2023/10/06 06:23:33;;;;;;;;;;;21.20;49.90;;;;;;1576272;74;1929;-59
2023/10/06 06:25:35;;;;;;;;;;;21.20;50.10;;;;;;1563911;74;1104;-60
2023/10/06 06:27:36;;;;;;;;;;;21.20;50.10;;;;;;1574078;75;1076;-59
2023/10/06 06:29:38;;;;;;;;;;;21.30;50.20;;;;;;1571844;75;713;-59
2023/10/06 06:31:41;;;;;;;;;;;21.30;50.30;;;;;;1569716;75;1173;-59
2023/10/06 06:33:43;;;;;;;;;;;21.30;50.20;;;;;;1564508;75;1671;-60
2023/10/06 06:35:44;;;;;;;;;;;21.30;50.30;;;;;;1558078;75;820;-60
2023/10/06 06:37:51;;;;;;;;;;;21.30;50.40;;;;;;1570329;75;703;-58
2023/10/06 06:39:51;;;;;;;;;;;21.40;50.30;;;;;;1571661;75;1406;-59
2023/10/06 06:41:53;;;;;;;;;;;21.40;50.30;;;;;;1563579;75;1114;-60
2023/10/06 06:43:58;;;;;;;;;;;21.40;50.30;;;;;;1563928;75;1915;-58
2023/10/06 06:46:01;;;;;;;;;;;21.40;50.20;;;;;;1566328;74;1599;-60
2023/10/06 06:48:03;;;;;;;;;;;21.40;50.20;;;;;;1555506;75;878;-59
2023/10/06 06:50:06;;;;;;;;;;;21.50;50.40;;;;;;1565665;75;757;-60
2023/10/06 06:52:08;;;;;;;;;;;21.40;50.30;;;;;;1567220;75;1165;-59
2023/10/06 06:54:11;;;;;;;;;;;21.50;50.40;;;;;;1573876;75;563;-60
2023/10/06 06:56:13;;;;;;;;;;;21.50;50.40;;;;;;1566145;75;758;-59
2023/10/06 06:58:16;;;;;;;;;;;21.40;50.30;;;;;;1572487;75;741;-61
2023/10/06 07:00:21;;;;;;;;;;;21.50;50.50;;;;;;1571058;75;1410;-59
2023/10/06 07:02:22;;;;;;;;;;;21.50;50.40;;;;;;1572562;75;1065;-58
2023/10/06 07:04:30;;;;;;;;;;;21.50;50.60;;;;;;1572269;75;1946;-59
2023/10/06 07:06:28;;;;;;;;;;;21.50;50.50;;;;;;1567016;74;1608;-59
2023/10/06 07:08:30;;;;;;;;;;;21.50;50.60;;;;;;1563825;74;714;-58
2023/10/06 07:10:32;;;;;;;;;;;21.50;50.50;;;;;;1563991;75;1182;-60
2023/10/06 07:12:34;;;;;;;;;;;21.50;50.60;;;;;;1563481;75;704;-58
2023/10/06 07:14:36;;;;;;;;;;;21.60;50.60;;;;;;1564544;75;1443;-57
2023/10/06 07:16:38;;;;;;;;;;;21.50;50.60;;;;;;1564212;75;714;-58
2023/10/06 07:18:40;;;;;;;;;;;21.50;50.60;;;;;;1568907;75;974;-59
2023/10/06 07:20:44;;;;;;;;;;;21.60;50.60;;;;;;1567163;75;1139;-57
2023/10/06 07:22:46;;;;;;;;;;;21.60;50.60;;;;;;1564108;75;674;-58
2023/10/06 07:24:49;;;;;;;;;;;21.60;50.70;;;;;;1565030;75;1935;-58
2023/10/06 07:26:52;;;;;;;;;;;21.60;50.60;;;;;;1565427;75;1081;-59
2023/10/06 07:28:56;;;;;;;;;;;21.60;50.60;;;;;;1568557;75;1437;-58
2023/10/06 07:30:59;;;;;;;;;;;21.60;50.70;;;;;;1570428;75;1208;-58
2023/10/06 07:33:02;;;;;;;;;;;21.60;50.70;;;;;;1572813;75;770;-58
2023/10/06 07:35:05;;;;;;;;;;;21.60;50.60;;;;;;1567807;75;755;-58
2023/10/06 07:37:07;;;;;;;;;;;21.60;50.70;;;;;;1567257;75;720;-58
2023/10/06 07:39:20;;;;;;;;;;;21.60;50.70;;;;;;1573881;75;612;-57
2023/10/06 07:41:19;;;;;;;;;;;21.70;50.80;;;;;;1563819;75;1624;-59
2023/10/06 07:43:23;;;;;;;;;;;21.60;50.70;;;;;;1569239;75;1504;-58
2023/10/06 07:45:30;;;;;;;;;;;21.60;50.70;;;;;;1561787;75;1893;-59
2023/10/06 07:47:31;;;;;;;;;;;21.60;50.70;;;;;;1560149;75;1543;-59
2023/10/06 07:49:34;;;;;;;;;;;21.70;50.80;;;;;;1564965;75;1491;-60
2023/10/06 07:51:35;;;;;;;;;;;21.60;50.70;;;;;;1560364;75;1650;-59
2023/10/06 07:53:38;;;;;;;;;;;21.60;50.70;;;;;;1558772;75;730;-60
2023/10/06 07:55:40;;;;;;;;;;;21.60;50.70;;;;;;1568246;75;782;-59
2023/10/06 07:57:45;;;;;;;;;;;21.70;50.70;;;;;;1572649;75;1532;-59
2023/10/06 07:59:46;;;;;;;;;;;21.60;50.80;;;;;;1557421;75;922;-59
2023/10/06 08:01:48;;;;;;;;;;;21.70;50.90;;;;;;1560694;75;1148;-58
2023/10/06 08:03:50;;;;;;;;;;;21.70;50.80;;;;;;1571435;75;1943;-60
2023/10/06 08:05:52;;;;;;;;;;;21.70;50.70;;;;;;1567579;75;702;-58
2023/10/06 08:07:54;;;;;;;;;;;21.70;50.70;;;;;;1567184;74;668;-59
2023/10/06 08:09:59;;;;;;;;;;;21.70;50.80;;;;;;1568841;75;680;-59
2023/10/06 08:12:01;;;;;;;;;;;21.70;50.80;;;;;;1569651;74;1620;-60
2023/10/06 08:14:05;;;;;;;;;;;21.70;50.70;;;;;;1576957;75;735;-61
2023/10/06 08:16:07;;;;;;;;;;;21.70;50.70;;;;;;1566012;75;1585;-60
2023/10/06 08:18:09;;;;;;;;;;;21.80;50.90;;;;;;1566052;75;718;-60
2023/10/06 08:36:50;;;;;;;;;;;21.80;52.10;;;;;;1602595;72;665;-76
2023/10/06 08:38:53;;;;;;;;;;;21.80;51.70;;;;;;1583643;73;698;-75
2023/10/06 08:41:00;;;;;;;;;;;21.80;51.50;;;;;;1567856;75;1181;-74
2023/10/06 08:42:59;;;;;;;;;;;21.90;51.50;;;;;;1554030;75;996;-70
2023/10/06 08:45:01;;;;;;;;;;;21.90;51.60;;;;;;1549584;74;673;-78
2023/10/06 08:47:03;;;;;;;;;;;21.90;51.70;;;;;;1542064;75;780;-77
2023/10/06 08:49:05;;;;;;;;;;;21.90;51.80;;;;;;1546977;75;742;-79
2023/10/06 08:51:10;;;;;;;;;;;21.90;51.60;;;;;;1561188;75;1180;-76
2023/10/06 08:53:14;;;;;;;;;;;22.00;51.50;;;;;;1559687;75;1082;-76
2023/10/06 08:55:15;;;;;;;;;;;21.90;51.50;;;;;;1557732;75;2095;-75
2023/10/06 08:57:19;;;;;;;;;;;21.90;51.40;;;;;;1563454;75;694;-76
2023/10/06 08:59:21;;;;;;;;;;;21.90;51.40;;;;;;1559342;75;1154;-76
2023/10/06 09:01:23;;;;;;;;;;;22.00;51.30;;;;;;1548744;75;641;-76
2023/10/06 09:03:25;;;;;;;;;;;22.00;51.00;;;;;;1558632;75;641;-70
2023/10/06 09:05:28;;;;;;;;;;;22.10;51.00;;;;;;1564357;75;759;-74
2023/10/06 09:07:31;;;;;;;;;;;22.10;51.10;;;;;;1560330;75;712;-74
2023/10/06 09:10:30;;;;;;;;;;;22.10;51.50;;;;;;1625428;72;664;-75
2023/10/06 09:12:36;;;;;;;;;;;22.10;51.00;;;;;;1608549;73;1015;-75
2023/10/06 09:14:55;;;;;;;;;;;22.10;51.30;;;;;;1568480;74;1070;-75
2023/10/06 09:16:57;;;;;;;;;;;22.20;51.40;;;;;;1574655;74;1082;-76
2023/10/06 09:19:04;;;;;;;;;;;22.10;52.10;;;;;;1530074;77;962;-76
2023/10/06 09:21:13;;;;;;;;;;;22.10;51.90;;;;;;1501304;77;984;-76
2023/10/06 09:23:34;;;;;;;;;;;22.20;51.80;;;;;;1574231;74;1079;-76
2023/10/06 09:25:42;;;;;;;;;;;22.20;52.60;;;;;;1573354;74;1459;-77
2023/10/06 09:27:44;;;;;;;;;;;22.20;51.70;;;;;;1567313;74;780;-78
2023/10/06 09:29:46;;;;;;;;;;;22.20;52.00;;;;;;1564845;74;1920;-75
2023/10/06 09:31:48;;;;;;;;;;;22.20;52.10;;;;;;1568339;74;757;-77
2023/10/06 09:33:52;;;;;;;;;;;22.20;52.10;;;;;;1570135;74;1130;-78
2023/10/06 09:36:06;;;;;;;;;;;22.20;52.50;;;;;;1572518;74;1109;-77
2023/10/06 09:38:17;;;;;;;;;;;22.20;52.60;;;;;;1568280;74;972;-76
2023/10/06 09:40:22;;;;;;;;;;;22.20;54.40;;;;;;1574243;73;691;-76
2023/10/06 09:42:30;;;;;;;;;;;22.20;56.00;;;;;;1563562;74;687;-77
2023/10/06 09:44:34;;;;;;;;;;;22.30;55.30;;;;;;1571724;74;1103;-77
2023/10/06 09:46:35;;;;;;;;;;;22.30;54.40;;;;;;1571216;74;1625;-76
2023/10/06 09:48:38;;;;;;;;;;;22.30;54.60;;;;;;1577542;74;1929;-76
2023/10/06 09:50:40;;;;;;;;;;;22.30;53.60;;;;;;1573129;74;706;-76
2023/10/06 09:52:43;;;;;;;;;;;22.20;53.00;;;;;;1573576;74;1095;-74
2023/10/06 09:54:45;;;;;;;;;;;22.30;53.10;;;;;;1573433;74;755;-77
2023/10/06 09:56:47;;;;;;;;;;;22.30;53.00;;;;;;1568317;74;649;-78
2023/10/06 09:58:49;;;;;;;;;;;22.20;52.80;;;;;;1570922;74;709;-76
2023/10/06 10:00:51;;;;;;;;;;;22.20;52.50;;;;;;1580825;74;706;-76
2023/10/06 10:02:53;;;;;;;;;;;22.20;52.70;;;;;;1568511;74;1151;-76
2023/10/06 10:04:55;;;;;;;;;;;22.20;52.80;;;;;;1569967;74;667;-76
2023/10/06 10:06:56;;;;;;;;;;;22.30;52.90;;;;;;1564751;72;229976;-65
2023/10/06 10:08:58;;;;;;;;;;;22.30;52.50;;;;;;1570399;74;1958;-64
2023/10/06 10:11:01;;;;;;;;;;;22.20;52.30;;;;;;1553952;75;1148;-63
2023/10/06 10:13:21;;;;;;;;;;;22.20;52.60;;;;;;1553006;75;584;-61
2023/10/06 10:15:37;;;;;;;;;;;22.30;52.80;;;;;;1525950;76;610;-61
2023/10/06 10:17:39;;;;;;;;;;;22.20;52.80;;;;;;1534860;76;1411;-61
2023/10/06 10:19:43;;;;;;;;;;;22.20;53.00;;;;;;1540720;76;1577;-63
2023/10/06 10:21:44;;;;;;;;;;;22.20;52.90;;;;;;1539314;76;1633;-66
2023/10/06 10:23:48;;;;;;;;;;;22.30;53.20;;;;;;1537120;76;1041;-61
2023/10/06 10:25:51;;;;;;;;;;;22.20;53.20;;;;;;1536605;76;1559;-62
2023/10/06 10:28:14;;;;;;;;;;;22.20;53.20;;;;;;1543862;76;772;-61
2023/10/06 10:30:16;;;;;;;;;;;22.20;53.20;;;;;;1539038;76;1909;-61
2023/10/06 10:32:22;;;;;;;;;;;22.20;53.20;;;;;;1528570;76;829;-60
2023/10/06 10:34:22;;;;;;;;;;;22.30;53.10;;;;;;1534549;76;1376;-62
2023/10/06 10:36:24;;;;;;;;;;;22.20;53.20;;;;;;1540122;76;712;-63
2023/10/06 10:38:26;;;;;;;;;;;22.20;53.30;;;;;;1538454;76;722;-61
2023/10/06 10:40:29;;;;;;;;;;;22.20;53.30;;;;;;1540504;76;1167;-61
2023/10/06 10:42:35;;;;;;;;;;;22.20;53.30;;;;;;1540944;76;725;-61
2023/10/06 10:44:37;;;;;;;;;;;22.30;53.40;;;;;;1538775;76;1873;-61
2023/10/06 10:46:44;;;;;;;;;;;22.20;53.30;;;;;;1540737;76;740;-62
2023/10/06 10:48:49;;;;;;;;;;;22.20;53.30;;;;;;1542092;76;664;-65
2023/10/06 10:50:52;;;;;;;;;;;22.20;53.30;;;;;;1539395;76;1936;-62
2023/10/06 10:52:54;;;;;;;;;;;22.20;53.40;;;;;;1540075;76;685;-62
2023/10/06 10:54:56;;;;;;;;;;;22.20;53.10;;;;;;1541008;76;733;-61
2023/10/06 10:57:02;;;;;;;;;;;22.20;53.20;;;;;;1542752;76;806;-62
2023/10/06 10:59:04;;;;;;;;;;;22.20;53.30;;;;;;1538921;76;1865;-60
2023/10/06 11:01:27;;;;;;;;;;;22.20;53.20;;;;;;1537805;76;1105;-60
2023/10/06 11:03:28;;;;;;;;;;;22.20;53.10;;;;;;1541626;76;1680;-63
2023/10/06 11:05:31;;;;;;;;;;;22.30;53.40;;;;;;1540441;76;783;-61
2023/10/06 11:07:35;;;;;;;;;;;22.20;53.10;;;;;;1536104;76;759;-60
2023/10/06 11:10:10;;;;;;;;;;;22.20;53.10;;;;;;1539222;76;1947;-60
2023/10/06 11:11:46;;;;;;;;;;;22.30;53.40;;;;;;1530185;76;1304;-61
2023/10/06 11:13:52;;;;;;;;;;;22.30;53.40;;;;;;1539827;76;783;-60
2023/10/06 11:15:54;;;;;;;;;;;22.20;53.10;;;;;;1541878;75;1511;-66
2023/10/06 11:17:58;;;;;;;;;;;22.20;53.30;;;;;;1549084;75;751;-61
2023/10/06 11:20:12;;;;;;;;;;;22.20;53.20;;;;;;1553598;75;1141;-61
2023/10/06 11:22:22;;;;;;;;;;;22.30;53.30;;;;;;1529952;76;1630;-62
2023/10/06 11:24:25;;;;;;;;;;;22.20;53.10;;;;;;1531792;76;720;-63
2023/10/06 11:26:33;;;;;;;;;;;22.20;53.10;;;;;;1535900;76;714;-65
2023/10/06 11:28:44;;;;;;;;;;;22.20;53.20;;;;;;1528328;76;709;-62
2023/10/06 11:30:46;;;;;;;;;;;22.30;53.40;;;;;;1529954;76;1929;-63
2023/10/06 11:32:48;;;;;;;;;;;22.20;53.00;;;;;;1530617;76;782;-64
2023/10/06 11:34:55;;;;;;;;;;;22.30;53.20;;;;;;1532933;76;675;-63
2023/10/06 11:36:55;;;;;;;;;;;22.20;53.10;;;;;;1529350;76;1419;-65
2023/10/06 11:38:56;;;;;;;;;;;22.20;53.00;;;;;;1535435;76;766;-63
2023/10/06 11:40:59;;;;;;;;;;;22.20;53.10;;;;;;1532354;76;1118;-64
2023/10/06 11:43:13;;;;;;;;;;;22.30;53.10;;;;;;1535266;76;797;-63
2023/10/06 11:45:27;;;;;;;;;;;22.20;53.00;;;;;;1532615;76;739;-62
2023/10/06 11:47:30;;;;;;;;;;;22.20;53.10;;;;;;1532868;76;697;-63
2023/10/06 11:49:33;;;;;;;;;;;22.20;53.00;;;;;;1537433;75;1943;-63
2023/10/06 11:51:37;;;;;;;;;;;22.20;52.90;;;;;;1531246;76;815;-64
2023/10/06 11:53:40;;;;;;;;;;;22.20;53.00;;;;;;1533636;76;2019;-63
2023/10/06 11:55:42;;;;;;;;;;;22.20;53.00;;;;;;1534763;76;715;-62
2023/10/06 11:57:51;;;;;;;;;;;22.20;53.00;;;;;;1530447;76;771;-62
2023/10/06 11:59:57;;;;;;;;;;;22.20;52.90;;;;;;1518056;76;1013;-63
2023/10/06 12:02:00;;;;;;;;;;;22.20;52.90;;;;;;1520065;76;818;-63
2023/10/06 12:04:04;;;;;;;;;;;22.20;53.00;;;;;;1518946;76;1933;-62
2023/10/06 12:06:12;;;;;;;;;;;22.20;52.80;;;;;;1518227;76;1106;-64
2023/10/06 12:08:14;;;;;;;;;;;22.20;53.00;;;;;;1511522;76;728;-64
2023/10/06 12:10:17;;;;;;;;;;;22.20;53.00;;;;;;1511353;76;1960;-62
2023/10/06 12:12:20;;;;;;;;;;;22.20;53.00;;;;;;1515900;76;995;-63
2023/10/06 12:14:23;;;;;;;;;;;22.20;52.90;;;;;;1508647;76;743;-63
2023/10/06 12:16:25;;;;;;;;;;;22.20;52.90;;;;;;1511058;77;789;-68
2023/10/06 12:18:29;;;;;;;;;;;22.20;52.90;;;;;;1505438;76;751;-65
2023/10/06 12:20:35;;;;;;;;;;;22.20;53.00;;;;;;1507863;76;1144;-63
2023/10/06 12:22:34;;;;;;;;;;;22.20;53.00;;;;;;1510408;76;1608;-63
2023/10/06 12:24:36;;;;;;;;;;;22.30;53.10;;;;;;1516752;76;691;-63
2023/10/06 12:26:46;;;;;;;;;;;22.20;52.90;;;;;;1511062;77;725;-63
2023/10/06 12:28:42;;;;;;;;;;;22.20;52.90;;;;;;1509059;77;950;-63
2023/10/06 12:30:44;;;;;;;;;;;22.20;53.00;;;;;;1511744;77;1940;-64
2023/10/06 12:32:46;;;;;;;;;;;22.20;52.90;;;;;;1509198;77;800;-63
2023/10/06 12:34:48;;;;;;;;;;;22.20;53.00;;;;;;1508250;76;1119;-65
2023/10/06 12:36:52;;;;;;;;;;;22.20;52.90;;;;;;1521474;76;1232;-63
2023/10/06 12:38:53;;;;;;;;;;;22.10;52.90;;;;;;1521108;76;1705;-63